Time;durP1;ratioP1;P1;durP2;ratioP2;P2;SDS_P1;SDS_P2;PMS_P1;PMS_P2;Temp;Humidity;BMP_temperature;BMP_pressure;BME280_temperature;BME280_humidity;BME280_pressure;Samples;Min_cycle;Max_cycle;Signal;HPM_P1;HPM_P2
2022/01/25 00:28:20;;;;;;;9.63;4.70;;;;;;;-10.55;65.66;97735.13;5094625;28;20069;-61
2022/01/25 00:31:00;;;;;;;9.02;4.75;;;;;;;-10.41;65.30;97742.69;5094295;28;20102;-61
2022/01/25 00:33:27;;;;;;;12.10;5.78;;;;;;;-10.29;65.11;97742.59;5094400;28;20055;-61
2022/01/25 00:35:53;;;;;;;9.60;6.00;;;;;;;-10.25;64.51;97743.66;5094254;28;20397;-61
2022/01/25 00:38:18;;;;;;;11.65;7.18;;;;;;;-10.24;64.80;97741.22;5094075;28;20028;-61
2022/01/25 00:40:44;;;;;;;15.85;8.00;;;;;;;-10.19;64.76;97744.94;5094018;28;20027;-61
2022/01/25 00:43:10;;;;;;;20.40;9.93;;;;;;;-10.08;63.59;97744.72;5094084;28;20028;-61
2022/01/25 00:45:35;;;;;;;14.63;7.57;;;;;;;-10.06;64.30;97749.09;5094037;28;20020;-61
2022/01/25 00:48:04;;;;;;;10.18;5.97;;;;;;;-10.08;64.56;97750.69;5094259;28;20103;-61
2022/01/25 00:50:37;;;;;;;21.97;5.63;;;;;;;-10.07;64.00;97746.47;5093882;28;20047;-61
2022/01/25 00:55:31;;;;;;;13.15;6.38;;;;;;;-10.03;63.55;97738.28;5094036;28;20557;-61
2022/01/25 00:57:56;;;;;;;13.63;5.75;;;;;;;-9.94;62.76;97730.41;5092538;28;20367;-60
2022/01/25 01:00:22;;;;;;;11.43;5.78;;;;;;;-9.80;62.74;97729.56;5093608;28;20027;-61
2022/01/25 01:02:48;;;;;;;9.30;5.65;;;;;;;-9.81;62.59;97725.25;5093657;28;20445;-61
2022/01/25 01:05:14;;;;;;;10.02;4.82;;;;;;;-9.82;61.88;97718.47;5093762;28;20058;-61
2022/01/25 01:07:41;;;;;;;10.40;5.47;;;;;;;-9.75;62.12;97728.97;5093638;28;20027;-61
2022/01/25 01:10:08;;;;;;;9.60;5.65;;;;;;;-9.68;62.26;97731.09;5093631;28;20056;-61
2022/01/25 01:31:24;;;;;;;9.82;5.30;;;;;;;-9.14;59.56;97700.44;5093673;28;20030;-61
2022/01/25 01:40:07;;;;;;;9.45;4.47;;;;;;;-8.74;57.90;97694.22;5077109;28;20036;-61
2022/01/25 01:42:29;;;;;;;7.00;4.53;;;;;;;-8.59;56.50;97688.25;5084878;28;20039;-61
2022/01/25 01:47:48;;;;;;;8.00;4.43;;;;;;;-8.40;56.16;97690.16;5071818;28;20044;-61
2022/01/25 01:50:26;;;;;;;9.48;4.57;;;;;;;-8.22;55.57;97685.16;5093074;28;20051;-61
2022/01/25 01:52:53;;;;;;;16.30;6.88;;;;;;;-8.15;55.63;97683.84;5092973;28;20527;-61
2022/01/25 01:55:20;;;;;;;11.88;6.43;;;;;;;-8.07;54.89;97679.19;5093044;28;20024;-61
2022/01/25 01:57:48;;;;;;;9.10;5.35;;;;;;;-7.96;54.82;97680.63;5093070;28;20489;-61
2022/01/25 02:00:16;;;;;;;9.40;4.90;;;;;;;-7.89;54.29;97677.63;5092976;28;20418;-61
2022/01/25 02:02:42;;;;;;;6.68;3.88;;;;;;;-7.81;53.95;97672.06;5093018;28;20039;-61
2022/01/25 02:05:08;;;;;;;9.73;4.95;;;;;;;-7.76;54.03;97673.19;5092863;28;20021;-62
2022/01/25 02:07:34;;;;;;;8.63;4.53;;;;;;;-7.63;52.69;97664.53;5092864;28;20032;-61
2022/01/25 02:10:00;;;;;;;8.57;4.50;;;;;;;-7.66;53.59;97646.56;5093067;28;20474;-61
2022/01/25 02:12:27;;;;;;;6.43;4.13;;;;;;;-7.58;53.29;97659.69;5092867;28;20021;-61
2022/01/25 02:14:54;;;;;;;8.10;4.97;;;;;;;-7.55;52.88;97650.56;5093029;28;20031;-61
2022/01/25 02:23:14;;;;;;;8.15;4.32;;;;;;;-7.42;53.06;97636.78;5093232;28;20120;-61
2022/01/25 02:25:39;;;;;;;7.75;4.25;;;;;;;-7.32;51.91;97632.16;5092835;28;20024;-61
2022/01/25 02:28:05;;;;;;;7.22;4.32;;;;;;;-7.24;52.47;97641.03;5092723;28;20112;-61
2022/01/25 02:30:30;;;;;;;8.98;4.70;;;;;;;-7.29;52.83;97637.41;5092795;28;20020;-61
2022/01/25 02:32:57;;;;;;;9.82;5.75;;;;;;;-7.35;52.63;97625.25;5092869;28;20024;-61
2022/01/25 02:35:22;;;;;;;7.72;4.20;;;;;;;-7.33;52.38;97631.28;5092748;28;20024;-61
2022/01/25 02:37:48;;;;;;;7.63;4.13;;;;;;;-7.27;51.79;97630.72;5092644;28;20024;-61
2022/01/25 02:40:13;;;;;;;7.63;3.88;;;;;;;-7.29;51.80;97633.19;5096194;28;20474;-61
2022/01/25 02:42:39;;;;;;;8.52;5.05;;;;;;;-7.29;51.70;97628.09;5096290;28;20050;-61
2022/01/25 02:45:10;;;;;;;10.27;4.82;;;;;;;-7.21;51.98;97625.94;5096328;28;20020;-61
2022/01/25 02:50:19;;;;;;;8.75;4.85;;;;;;;-7.28;51.44;97621.34;5096615;28;20448;-61
2022/01/25 02:52:45;;;;;;;7.78;4.60;;;;;;;-7.22;52.54;97608.94;5096132;28;20024;-61
2022/01/25 02:55:11;;;;;;;8.00;4.55;;;;;;;-7.20;51.93;97611.56;5096212;28;20028;-61
2022/01/25 02:57:36;;;;;;;8.05;4.55;;;;;;;-7.30;51.12;97617.84;5096301;28;20020;-61
2022/01/25 03:00:09;;;;;;;7.13;3.83;;;;;;;-7.37;52.48;97614.97;5096110;28;20390;-61
2022/01/25 03:02:35;;;;;;;7.30;4.03;;;;;;;-7.33;51.93;97621.13;5096090;28;20125;-61
2022/01/25 03:05:01;;;;;;;6.28;4.18;;;;;;;-7.33;52.02;97608.41;5095914;28;20036;-61
2022/01/25 03:07:26;;;;;;;6.60;4.00;;;;;;;-7.33;51.94;97610.06;5095984;28;20405;-61
2022/01/25 03:09:53;;;;;;;7.28;4.22;;;;;;;-7.34;52.39;97611.75;5095929;28;20024;-61
2022/01/25 03:12:30;;;;;;;26.70;14.43;;;;;;;-7.37;51.95;97601.41;5095964;28;20031;-61
2022/01/25 03:17:46;;;;;;;11.90;7.05;;;;;;;-7.40;51.71;97601.25;5095797;28;20046;-60
2022/01/25 03:20:19;;;;;;;10.60;5.95;;;;;;;-7.45;52.06;97598.50;5095498;28;20054;-60
2022/01/25 03:22:57;;;;;;;11.00;6.43;;;;;;;-7.50;52.56;97599.91;5095734;28;20107;-62
2022/01/25 03:25:26;;;;;;;12.13;5.80;;;;;;;-7.57;52.95;97592.78;5095706;28;20031;-61
2022/01/25 03:27:52;;;;;;;6.97;4.55;;;;;;;-7.69;52.02;97585.41;5095524;28;20016;-61
2022/01/25 03:30:18;;;;;;;7.47;4.88;;;;;;;-7.77;52.22;97578.28;5095530;28;20110;-61
2022/01/25 03:32:44;;;;;;;7.93;4.45;;;;;;;-7.69;52.70;97582.88;5095525;28;20142;-61
2022/01/25 03:35:09;;;;;;;10.88;4.55;;;;;;;-7.67;52.20;97584.72;5095388;28;20462;-62
2022/01/25 03:37:35;;;;;;;8.20;4.68;;;;;;;-7.72;53.38;97587.78;5095454;28;20066;-61
2022/01/25 03:40:00;;;;;;;8.68;4.40;;;;;;;-7.87;54.48;97591.31;5095257;28;20035;-61
2022/01/25 03:42:26;;;;;;;8.60;4.38;;;;;;;-7.98;54.45;97588.19;5095279;28;20024;-61
2022/01/25 03:44:52;;;;;;;21.77;13.48;;;;;;;-8.09;53.97;97596.94;5095198;28;20062;-61
2022/01/25 03:47:22;;;;;;;10.82;6.30;;;;;;;-8.02;54.06;97591.38;5095164;28;20466;-61
2022/01/25 03:49:51;;;;;;;;;;;;;;;-7.95;54.28;97595.97;5094809;28;20028;-61
2022/01/25 03:52:26;;;;;;;6.45;3.85;;;;;;;-7.90;53.13;97591.13;5095042;28;19935;-61
2022/01/25 03:54:52;;;;;;;8.57;4.47;;;;;;;-7.75;53.07;97591.94;5095012;28;20089;-63
2022/01/25 03:57:18;;;;;;;6.30;4.10;;;;;;;-7.68;52.80;97598.19;5094973;28;20028;-61
2022/01/25 03:59:44;;;;;;;8.43;4.50;;;;;;;-7.57;53.05;97601.28;5094856;28;20027;-61
2022/01/25 04:02:10;;;;;;;7.85;4.80;;;;;;;-7.52;52.50;97598.97;5094984;28;20126;-61
2022/01/25 04:04:36;;;;;;;8.30;4.50;;;;;;;-7.39;52.27;97597.91;5094859;28;20461;-61
2022/01/25 04:07:08;;;;;;;6.60;4.18;;;;;;;-7.36;52.12;97603.16;5094754;28;20055;-61
2022/01/25 04:09:34;;;;;;;8.75;4.97;;;;;;;-7.33;52.26;97600.75;5094861;28;20046;-61
2022/01/25 04:12:01;;;;;;;7.82;4.70;;;;;;;-7.23;51.41;97591.91;5094744;28;20489;-61
2022/01/25 04:14:28;;;;;;;6.63;3.95;;;;;;;-7.19;51.92;97593.81;5094743;28;20436;-60
2022/01/25 04:17:01;;;;;;;5.80;3.97;;;;;;;-7.18;51.77;97599.75;5094571;28;20032;-63
2022/01/25 04:19:43;;;;;;;9.88;4.35;;;;;;;-7.11;51.77;97595.06;5093153;28;20412;-61
2022/01/25 04:27:23;;;;;;;11.50;6.75;;;;;;;-7.02;51.09;97583.56;5094994;28;20035;-61
2022/01/25 04:29:48;;;;;;;7.47;4.65;;;;;;;-6.89;50.84;97587.59;5094741;28;20024;-61
2022/01/25 04:32:15;;;;;;;8.98;5.15;;;;;;;-6.85;52.10;97592.03;5094308;28;20046;-61
2022/01/25 04:34:44;;;;;;;8.73;4.55;;;;;;;-6.88;52.42;97581.69;5094263;28;20038;-63
2022/01/25 04:53:36;;;;;;;8.77;5.07;;;;;;;-6.82;50.75;97566.72;5094199;28;20024;-61
2022/01/25 04:56:05;;;;;;;6.65;4.15;;;;;;;-6.75;50.72;97566.19;5093705;28;20046;-61
2022/01/25 04:59:01;;;;;;;9.15;5.25;;;;;;;-6.70;50.61;97574.06;5093958;28;20020;-61
2022/01/25 05:01:17;;;;;;;14.35;7.95;;;;;;;-6.62;50.37;97569.31;5093342;28;20040;-61
2022/01/25 05:06:16;;;;;;;7.63;4.15;;;;;;;-6.59;49.92;97559.28;5093793;28;20035;-61
2022/01/25 05:08:47;;;;;;;8.07;4.47;;;;;;;-6.54;49.80;97542.53;5093626;28;20052;-62
2022/01/25 05:11:29;;;;;;;10.82;6.45;;;;;;;-6.51;49.80;97555.41;5093661;28;20031;-61
2022/01/25 05:16:30;;;;;;;10.73;4.30;;;;;;;-6.42;49.44;97554.94;5093655;28;20499;-62
2022/01/25 05:19:20;;;;;;;6.30;4.10;;;;;;;-6.41;49.58;97549.03;5093547;28;20105;-61
2022/01/25 05:22:07;;;;;;;6.00;4.13;;;;;;;-6.50;49.61;97544.41;5093408;28;20048;-61
2022/01/25 05:24:36;;;;;;;7.18;3.70;;;;;;;-6.54;49.10;97545.06;5093409;28;20056;-60
2022/01/25 05:27:03;;;;;;;6.43;3.50;;;;;;;-6.48;49.11;97539.38;5093448;28;20145;-61
2022/01/25 05:29:29;;;;;;;4.57;3.72;;;;;;;-6.50;49.33;97541.84;5093294;28;20028;-60
2022/01/25 05:31:55;;;;;;;7.82;3.58;;;;;;;-6.57;49.43;97541.53;5093436;28;20081;-61
2022/01/25 05:34:21;;;;;;;5.22;3.38;;;;;;;-6.60;49.35;97526.97;5093269;28;20047;-61
2022/01/25 05:36:47;;;;;;;5.10;3.85;;;;;;;-6.49;49.05;97533.44;5093184;28;20089;-61
2022/01/25 05:39:21;;;;;;;8.02;4.18;;;;;;;-6.53;49.21;97534.06;5093216;28;20059;-61
2022/01/25 05:41:55;;;;;;;8.30;3.90;;;;;;;-6.52;49.67;97527.31;5093294;28;20133;-61
2022/01/25 05:49:24;;;;;;;7.00;4.15;;;;;;;-6.51;48.84;97535.03;5093358;28;20059;-61
2022/01/25 05:51:50;;;;;;;5.35;3.78;;;;;;;-6.45;48.53;97539.53;5093142;28;20020;-61
2022/01/25 05:54:16;;;;;;;5.82;3.30;;;;;;;-6.42;48.71;97534.56;5093084;28;20021;-61
2022/01/25 05:56:42;;;;;;;7.30;4.05;;;;;;;-6.35;48.31;97538.28;5093092;28;20020;-61
2022/01/25 05:59:08;;;;;;;7.93;4.32;;;;;;;-6.25;47.76;97534.44;5093111;28;20032;-61
2022/01/25 06:01:37;;;;;;;5.70;3.95;;;;;;;-6.24;47.91;97529.41;5092939;28;20028;-61
2022/01/25 06:04:06;;;;;;;5.63;3.80;;;;;;;-6.23;48.01;97528.59;5093060;28;20020;-61
2022/01/25 06:06:32;;;;;;;7.43;3.78;;;;;;;-6.16;48.35;97527.22;5092982;28;20386;-61
2022/01/25 06:08:59;;;;;;;6.30;3.88;;;;;;;-6.12;47.61;97534.19;5092890;28;20111;-61
2022/01/25 06:11:25;;;;;;;6.72;3.80;;;;;;;-6.03;47.86;97531.13;5092872;28;20081;-61
2022/01/25 06:13:52;;;;;;;6.05;4.05;;;;;;;-5.91;47.59;97535.88;5094598;28;20039;-61
2022/01/25 06:16:18;;;;;;;5.28;3.47;;;;;;;-5.81;47.70;97536.28;5096969;28;20111;-61
2022/01/25 06:18:44;;;;;;;6.95;3.90;;;;;;;-5.71;49.07;97533.31;5097115;28;20016;-61
2022/01/25 06:21:10;;;;;;;4.95;3.38;;;;;;;-4.65;47.73;97544.28;5096779;28;20040;-61
2022/01/25 06:23:36;;;;;;;4.85;3.35;;;;;;;-3.01;44.21;97535.44;5097040;28;20020;-63
2022/01/25 06:26:02;;;;;;;11.32;3.70;;;;;;;-1.20;42.07;97534.47;5096637;28;20107;-63
2022/01/25 06:28:28;;;;;;;5.85;3.35;;;;;;;0.61;38.29;97531.34;5096756;28;20024;-63
2022/01/25 06:30:54;;;;;;;10.35;4.93;;;;;;;1.63;34.59;97522.63;5096765;28;20028;-64
2022/01/25 06:33:20;;;;;;;5.82;3.45;;;;;;;1.71;34.57;97523.56;5096682;28;20028;-63
2022/01/25 06:35:47;;;;;;;5.85;3.88;;;;;;;1.73;34.81;97519.31;5096830;28;20016;-63
2022/01/25 06:38:14;;;;;;;6.53;4.28;;;;;;;1.58;34.69;97519.09;5096696;28;20020;-63
2022/01/25 06:40:39;;;;;;;18.70;9.48;;;;;;;1.33;34.67;97509.31;5096630;28;20031;-63
2022/01/25 06:43:06;;;;;;;17.00;7.80;;;;;;;1.13;37.08;97511.59;5096314;28;20497;-63
2022/01/25 06:45:31;;;;;;;9.57;5.70;;;;;;;1.28;35.87;97516.09;5096270;28;20020;-64
2022/01/25 06:47:57;;;;;;;12.02;6.88;;;;;;;1.35;34.70;97517.94;5096468;28;20025;-63
2022/01/25 06:50:23;;;;;;;5.70;4.07;;;;;;;1.18;34.37;97507.38;5096452;28;20027;-63
2022/01/25 06:52:50;;;;;;;5.55;3.90;;;;;;;1.03;34.93;97520.03;5096311;28;20474;-62
2022/01/25 06:55:18;;;;;;;5.15;3.67;;;;;;;1.33;34.90;97513.59;5096245;28;20027;-64
2022/01/25 06:57:45;;;;;;;6.75;4.28;;;;;;;1.51;34.69;97503.53;5096097;28;20031;-62
2022/01/25 07:00:14;;;;;;;6.35;3.88;;;;;;;0.79;34.33;97509.34;5096123;28;20020;-62
2022/01/25 07:02:41;;;;;;;5.88;3.50;;;;;;;0.66;33.25;97505.69;5096096;28;20028;-62
2022/01/25 07:05:07;;;;;;;6.22;3.95;;;;;;;1.00;34.75;97508.81;5096158;28;20104;-63
2022/01/25 07:07:34;;;;;;;7.70;4.53;;;;;;;1.26;34.76;97502.31;5094816;28;20029;-63
2022/01/25 07:09:59;;;;;;;8.10;4.57;;;;;;;1.56;33.78;97501.00;5095856;28;20027;-63
2022/01/25 07:12:25;;;;;;;11.40;5.68;;;;;;;1.80;33.29;97491.00;5095867;28;20024;-63
2022/01/25 07:14:50;;;;;;;8.02;4.90;;;;;;;2.33;33.63;97492.44;5095957;28;20028;-63
2022/01/25 07:17:16;;;;;;;6.53;3.97;;;;;;;2.83;32.71;97481.69;5095889;28;20072;-64
2022/01/25 07:19:42;;;;;;;5.47;3.60;;;;;;;3.55;29.67;97490.78;5095670;28;20469;-63
2022/01/25 07:22:08;;;;;;;4.65;3.50;;;;;;;4.79;28.99;97490.25;5095671;28;20051;-64
2022/01/25 07:24:33;;;;;;;5.95;4.10;;;;;;;5.74;27.42;97486.66;5094846;28;20024;-65
2022/01/25 07:26:59;;;;;;;3.60;2.63;;;;;;;5.43;25.27;97486.75;5095276;28;20048;-64
2022/01/25 07:29:26;;;;;;;5.45;3.72;;;;;;;5.06;25.84;97488.53;5095533;28;20486;-63
2022/01/25 07:31:51;;;;;;;4.68;2.95;;;;;;;5.09;26.46;97492.00;5095550;28;20384;-62
2022/01/25 07:34:17;;;;;;;5.78;4.00;;;;;;;5.27;26.57;97493.69;5095333;28;20024;-64
2022/01/25 07:36:43;;;;;;;5.47;3.78;;;;;;;5.20;26.78;97490.25;5095430;28;20074;-60
2022/01/25 07:39:10;;;;;;;5.25;3.72;;;;;;;4.82;25.89;97485.94;5095509;28;20024;-65
2022/01/25 07:41:36;;;;;;;6.22;3.40;;;;;;;3.92;28.02;97485.75;5095206;28;20066;-65
2022/01/25 07:44:03;;;;;;;5.68;3.88;;;;;;;3.76;28.86;97478.78;5095440;28;20493;-64
2022/01/25 07:46:29;;;;;;;5.30;3.55;;;;;;;4.12;28.37;97484.13;5095334;28;20024;-64
2022/01/25 07:48:56;;;;;;;5.80;4.00;;;;;;;4.58;27.09;97485.06;5095280;28;20038;-62
2022/01/25 07:51:22;;;;;;;7.18;3.90;;;;;;;4.51;27.49;97485.06;5095348;28;20049;-65
2022/01/25 07:53:48;;;;;;;6.68;4.03;;;;;;;4.50;27.54;97483.34;5095255;28;20020;-65
2022/01/25 07:56:14;;;;;;;6.22;4.18;;;;;;;4.96;27.26;97483.34;5095189;28;20482;-64
2022/01/25 07:58:40;;;;;;;5.53;3.80;;;;;;;5.12;26.88;97490.25;5095111;28;20048;-62
2022/01/25 08:01:06;;;;;;;5.15;3.95;;;;;;;4.05;26.77;97475.44;5095205;28;20363;-65
2022/01/25 08:03:32;;;;;;;5.38;4.00;;;;;;;3.16;29.17;97481.06;5095012;28;20016;-64
2022/01/25 08:05:58;;;;;;;6.35;4.18;;;;;;;2.55;29.45;97481.44;5094931;28;20061;-63
2022/01/25 08:08:23;;;;;;;5.82;4.20;;;;;;;1.73;30.57;97490.94;5094893;28;20032;-63
2022/01/25 08:10:49;;;;;;;6.05;4.55;;;;;;;1.15;33.08;97484.13;5094748;28;20031;-61
2022/01/25 08:13:15;;;;;;;5.07;4.07;;;;;;;0.98;33.57;97495.06;5094866;28;20505;-62
2022/01/25 08:15:41;;;;;;;8.35;4.22;;;;;;;0.93;32.59;97491.53;5094970;28;20020;-62
2022/01/25 08:18:06;;;;;;;9.20;4.03;;;;;;;0.55;33.46;97491.78;5094647;28;20024;-61
2022/01/25 08:20:32;;;;;;;7.65;4.68;;;;;;;0.40;34.71;97489.78;5094312;28;20044;-60
2022/01/25 08:22:58;;;;;;;6.20;4.28;;;;;;;-0.20;34.56;97496.41;5094513;28;20098;-61
2022/01/25 08:25:24;;;;;;;4.35;3.50;;;;;;;-0.22;34.44;97492.94;5094620;28;20027;-61
2022/01/25 08:27:49;;;;;;;6.63;4.68;;;;;;;-0.33;36.50;97497.00;5093245;28;20481;-62
2022/01/25 08:30:15;;;;;;;7.07;4.72;;;;;;;-0.53;36.82;97487.16;5093288;28;20044;-62
2022/01/25 08:32:41;;;;;;;6.72;3.90;;;;;;;-0.49;35.74;97488.97;5094383;28;20020;-62
2022/01/25 08:35:07;;;;;;;7.90;4.72;;;;;;;-0.30;36.55;97486.78;5094467;28;20024;-61
2022/01/25 08:37:33;;;;;;;7.53;3.85;;;;;;;-0.33;36.61;97489.28;5093928;28;20031;-62
2022/01/25 08:39:59;;;;;;;7.43;4.18;;;;;;;-0.41;37.34;97487.44;5094281;28;20024;-63
2022/01/25 08:42:25;;;;;;;5.75;4.05;;;;;;;-0.29;37.42;97493.66;5094134;28;20415;-63
2022/01/25 08:44:51;;;;;;;6.28;4.00;;;;;;;-0.10;35.91;97494.88;5094154;28;20048;-63
2022/01/25 08:47:17;;;;;;;5.80;3.72;;;;;;;-0.15;35.63;97493.94;5094200;28;20105;-62
2022/01/25 08:49:43;;;;;;;7.45;4.13;;;;;;;0.11;35.23;97493.56;5094066;28;20099;-62
2022/01/25 08:52:09;;;;;;;8.48;4.63;;;;;;;0.22;34.92;97493.78;5094176;28;20536;-63
2022/01/25 08:54:35;;;;;;;7.00;4.22;;;;;;;0.25;36.26;97494.69;5092921;28;20348;-63
2022/01/25 08:57:02;;;;;;;12.65;8.00;;;;;;;0.51;35.67;97498.56;5093897;28;20115;-64
2022/01/25 08:59:28;;;;;;;19.77;9.95;;;;;;;0.61;35.57;97495.31;5094008;28;20024;-63
2022/01/25 09:01:54;;;;;;;7.45;5.47;;;;;;;0.88;35.56;97488.88;5093859;28;20050;-62
2022/01/25 09:04:20;;;;;;;7.95;4.53;;;;;;;1.09;34.39;97484.03;5094007;28;20043;-63
2022/01/25 09:06:47;;;;;;;6.72;4.60;;;;;;;1.11;33.36;97480.63;5093944;28;20020;-62
2022/01/25 09:09:13;;;;;;;11.73;6.93;;;;;;;0.77;35.15;97474.09;5093786;28;20107;-63
2022/01/25 09:11:40;;;;;;;5.82;3.50;;;;;;;0.62;33.40;97461.00;5093810;28;20055;-62
2022/01/25 09:14:07;;;;;;;11.40;6.07;;;;;;;0.78;34.24;97460.38;5093597;28;20047;-62
2022/01/25 09:16:34;;;;;;;14.50;6.78;;;;;;;1.02;33.80;97459.88;5093552;28;20020;-63
2022/01/25 09:19:00;;;;;;;6.88;3.85;;;;;;;0.88;33.64;97450.22;5093718;28;20359;-63
2022/01/25 09:21:25;;;;;;;6.30;3.67;;;;;;;0.77;32.61;97449.19;5093508;28;20048;-62
2022/01/25 09:23:51;;;;;;;9.02;5.35;;;;;;;0.57;34.45;97447.16;5093570;28;20028;-63
2022/01/25 09:26:18;;;;;;;8.15;5.00;;;;;;;0.65;34.97;97449.00;5093561;28;20020;-63
2022/01/25 09:28:44;;;;;;;5.40;3.63;;;;;;;0.70;33.43;97440.53;5092174;28;20378;-63
2022/01/25 09:31:09;;;;;;;11.18;6.45;;;;;;;0.84;32.66;97442.44;5093477;28;20026;-63
2022/01/25 09:33:35;;;;;;;9.20;5.32;;;;;;;0.91;33.92;97439.13;5093373;28;20036;-63
2022/01/25 09:36:02;;;;;;;7.05;3.80;;;;;;;1.11;33.10;97423.94;5093412;28;20016;-64
2022/01/25 09:38:28;;;;;;;4.82;3.35;;;;;;;1.01;33.30;97422.06;5093305;28;20046;-63
2022/01/25 09:40:53;;;;;;;4.55;3.13;;;;;;;0.84;32.54;97417.53;5093224;28;20515;-62
2022/01/25 09:43:21;;;;;;;5.88;3.28;;;;;;;0.87;33.10;97411.53;5093330;28;20020;-63
2022/01/25 09:45:48;;;;;;;6.32;3.33;;;;;;;0.84;33.31;97414.09;5093144;28;20032;-62
2022/01/25 09:48:15;;;;;;;5.10;3.65;;;;;;;0.67;33.60;97412.13;5092416;28;20028;-63
2022/01/25 09:50:41;;;;;;;4.90;3.67;;;;;;;0.82;32.34;97403.78;5093007;28;20016;-63
2022/01/25 09:53:07;;;;;;;4.97;3.70;;;;;;;0.78;32.94;97403.72;5093077;28;20056;-62
2022/01/25 09:55:37;;;;;;;9.45;3.58;;;;;;;0.81;34.33;97403.75;5093121;28;20074;-63
2022/01/25 09:58:03;;;;;;;6.97;3.63;;;;;;;0.82;34.59;97400.31;5093144;28;20028;-63
2022/01/25 10:00:31;;;;;;;4.38;2.85;;;;;;;0.84;33.44;97396.91;5092922;28;20028;-62
2022/01/25 10:05:45;;;;;;;4.90;3.47;;;;;;;0.98;34.91;97391.09;5093011;28;20029;-64
2022/01/25 10:08:11;;;;;;;6.93;3.75;;;;;;;1.07;33.90;97386.06;5093057;28;20027;-63
2022/01/25 10:11:04;;;;;;;4.57;3.38;;;;;;;1.04;33.29;97377.41;5092942;28;20589;-63
2022/01/25 10:13:37;;;;;;;4.53;2.90;;;;;;;0.92;32.71;97378.13;5091400;28;20036;-63
2022/01/25 10:16:04;;;;;;;4.78;3.47;;;;;;;0.81;34.21;97384.00;5092999;28;20028;-63
2022/01/25 10:18:46;;;;;;;4.15;3.08;;;;;;;0.94;32.72;97372.16;5091683;28;20020;-63
2022/01/25 10:21:24;;;;;;;5.55;3.63;;;;;;;0.95;32.48;97373.88;5092597;28;20486;-64
2022/01/25 10:24:15;;;;;;;5.07;3.13;;;;;;;1.15;32.56;97375.88;5092859;28;20378;-63
2022/01/25 10:27:02;;;;;;;7.03;3.17;;;;;;;1.21;32.22;97372.50;5092808;28;20039;-62
2022/01/25 10:29:34;;;;;;;5.13;3.28;;;;;;;0.98;33.00;97366.19;5092446;28;20032;-62
2022/01/25 10:32:02;;;;;;;4.57;3.38;;;;;;;0.66;33.18;97356.28;5092889;28;20579;-62
2022/01/25 10:34:44;;;;;;;3.13;2.72;;;;;;;0.70;33.91;97355.53;5092784;28;20056;-62
2022/01/25 10:37:15;;;;;;;5.25;3.65;;;;;;;0.67;32.97;97350.31;5092757;28;20469;-63
2022/01/25 10:39:45;;;;;;;5.10;3.50;;;;;;;0.65;32.51;97343.38;5092861;28;20036;-62
2022/01/25 10:42:15;;;;;;;7.22;2.90;;;;;;;0.62;33.53;97346.78;5092672;28;20034;-62
2022/01/25 10:44:54;;;;;;;4.97;2.92;;;;;;;0.45;31.89;97329.38;5092771;28;20466;-63
2022/01/25 10:47:42;;;;;;;4.20;3.28;;;;;;;0.44;34.69;97330.25;5092718;28;20021;-63
2022/01/25 10:50:22;;;;;;;4.38;2.95;;;;;;;0.54;34.67;97327.81;5092607;28;20415;-61
2022/01/25 10:53:15;;;;;;;5.38;3.10;;;;;;;0.68;33.73;97318.56;5092697;28;20496;-63
2022/01/25 10:55:40;;;;;;;3.30;2.85;;;;;;;0.69;32.46;97314.28;5092749;28;20055;-64
2022/01/25 10:58:07;;;;;;;4.28;3.30;;;;;;;0.44;32.18;97313.91;5092548;28;20016;-63
2022/01/25 11:00:41;;;;;;;4.55;3.05;;;;;;;0.34;34.33;97310.34;5094818;28;20044;-63
2022/01/25 11:03:07;;;;;;;10.38;3.70;;;;;;;0.37;34.76;97310.41;5096169;28;20374;-63
2022/01/25 11:05:36;;;;;;;9.65;3.38;;;;;;;0.33;32.58;97314.63;5096081;28;20047;-63
2022/01/25 11:08:18;;;;;;;4.45;2.85;;;;;;;0.14;33.11;97315.16;5096048;28;20497;-63
2022/01/25 11:10:51;;;;;;;4.32;2.85;;;;;;;-0.01;33.03;97312.41;5095994;28;20035;-63
2022/01/25 11:13:52;;;;;;;5.32;3.40;;;;;;;-0.17;33.67;97307.81;5095927;28;20028;-62
2022/01/25 11:16:11;;;;;;;6.20;2.70;;;;;;;-0.11;33.62;97307.94;5092599;28;20044;-63
2022/01/25 11:18:38;;;;;;;3.40;2.60;;;;;;;-0.26;34.31;97301.69;5095812;28;20028;-63
2022/01/25 11:21:07;;;;;;;4.13;3.03;;;;;;;-0.43;34.84;97297.94;5095464;28;20048;-63
2022/01/25 11:23:36;;;;;;;4.97;3.17;;;;;;;-0.38;35.23;97311.75;5095771;28;20024;-62
2022/01/25 11:26:04;;;;;;;4.28;2.80;;;;;;;-0.30;35.35;97288.75;5095689;28;20024;-63
2022/01/25 11:28:32;;;;;;;5.13;2.95;;;;;;;-0.17;34.56;97290.69;5095501;28;20020;-63
2022/01/25 11:31:03;;;;;;;6.05;2.90;;;;;;;-0.41;34.29;97291.13;5095600;28;20036;-63
2022/01/25 11:33:31;;;;;;;4.38;3.08;;;;;;;-0.30;34.81;97291.34;5095481;28;20024;-62
2022/01/25 11:35:57;;;;;;;4.50;2.92;;;;;;;-0.19;35.11;97286.34;5095475;28;20058;-63
2022/01/25 11:38:42;;;;;;;4.85;3.10;;;;;;;-0.16;33.19;97281.25;5095441;28;20454;-62
2022/01/25 11:41:10;;;;;;;4.72;2.85;;;;;;;-0.03;35.40;97279.78;5094060;28;20028;-63
2022/01/25 11:43:36;;;;;;;4.40;3.03;;;;;;;-0.01;34.08;97266.09;5095331;28;20042;-63
2022/01/25 11:46:05;;;;;;;4.97;3.40;;;;;;;-0.08;34.69;97274.53;5095309;28;20024;-63
2022/01/25 11:48:39;;;;;;;6.53;3.38;;;;;;;-0.14;35.26;97275.31;5095294;28;20031;-63
2022/01/25 11:51:13;;;;;;;6.95;3.55;;;;;;;-0.14;33.81;97272.75;5095136;28;20027;-63
2022/01/25 11:53:45;;;;;;;3.35;2.58;;;;;;;-0.10;34.64;97276.22;5095183;28;20016;-63
2022/01/25 11:56:13;;;;;;;5.18;2.63;;;;;;;-0.09;32.45;97266.81;5095193;28;20077;-62
2022/01/25 11:58:40;;;;;;;6.63;3.72;;;;;;;-0.15;34.61;97263.28;5095016;28;20024;-63
2022/01/25 12:01:17;;;;;;;5.18;3.05;;;;;;;-0.03;33.20;97264.34;5094838;28;20458;-62
2022/01/25 12:03:45;;;;;;;5.63;3.50;;;;;;;-0.15;33.08;97267.56;5093675;28;20036;-62
2022/01/25 12:06:21;;;;;;;5.55;3.20;;;;;;;-0.05;34.26;97264.31;5094828;28;20099;-62
2022/01/25 12:11:29;;;;;;;7.68;3.83;;;;;;;-0.06;35.71;97256.56;5094087;28;20031;-63
2022/01/25 12:14:09;;;;;;;4.50;3.22;;;;;;;-0.11;36.49;97253.03;5094592;28;20035;-63
2022/01/25 12:16:43;;;;;;;;;;;;;;;-0.01;35.67;97249.75;5095152;28;20024;-62
2022/01/25 12:19:11;;;;;;;3.63;2.72;;;;;;;0.07;35.43;97240.47;5094592;28;19916;-63
2022/01/25 12:21:50;;;;;;;9.35;4.72;;;;;;;0.11;34.98;97239.66;5094254;28;20493;-63
2022/01/25 12:24:20;;;;;;;7.32;4.25;;;;;;;0.23;34.41;97240.69;5094639;28;20035;-62
2022/01/25 12:27:18;;;;;;;5.45;2.58;;;;;;;0.28;33.49;97239.06;5094439;28;20115;-63
2022/01/25 12:29:44;;;;;;;5.55;3.05;;;;;;;0.10;34.28;97237.06;5094562;28;20054;-63
2022/01/25 12:32:29;;;;;;;4.43;2.92;;;;;;;0.12;34.23;97243.13;5094346;28;20020;-63
2022/01/25 12:34:59;;;;;;;6.13;3.90;;;;;;;-0.11;34.94;97229.88;5094418;28;20062;-62
2022/01/25 12:37:42;;;;;;;4.50;3.65;;;;;;;-0.13;36.23;97232.44;5094322;28;20355;-62
2022/01/25 12:40:26;;;;;;;5.45;3.50;;;;;;;0.00;35.46;97228.38;5094174;28;20123;-63
2022/01/25 12:43:18;;;;;;;8.55;5.38;;;;;;;0.03;35.67;97223.22;5094207;28;20138;-63
2022/01/25 12:45:49;;;;;;;6.65;4.25;;;;;;;0.05;36.43;97216.41;5094224;28;20028;-63
2022/01/25 12:48:19;;;;;;;10.55;6.15;;;;;;;0.03;38.36;97209.53;5094179;28;20040;-62
2022/01/25 12:50:49;;;;;;;10.15;5.35;;;;;;;-0.01;36.48;97209.47;5094059;28;20450;-62
2022/01/25 12:53:18;;;;;;;7.07;4.75;;;;;;;0.10;36.56;97208.78;5093909;28;20105;-63
2022/01/25 12:55:48;;;;;;;11.38;6.07;;;;;;;0.11;35.81;97215.63;5094154;28;20089;-63
2022/01/25 12:58:14;;;;;;;4.30;2.67;;;;;;;0.01;35.00;97206.06;5093988;28;20031;-62
2022/01/25 13:00:43;;;;;;;3.10;2.17;;;;;;;-0.08;34.88;97202.50;5093873;28;20077;-63
2022/01/25 13:03:20;;;;;;;4.75;2.90;;;;;;;-0.13;34.47;97214.44;5093838;28;20055;-62
2022/01/25 13:06:22;;;;;;;4.85;2.50;;;;;;;-0.31;33.52;97205.59;5093915;28;20031;-62
2022/01/25 13:09:08;;;;;;;4.30;2.55;;;;;;;-0.36;33.25;97203.78;5077040;28;20048;-62
2022/01/25 13:17:14;;;;;;;3.55;2.55;;;;;;;-0.63;34.03;97205.94;5093649;28;20393;-62
2022/01/25 13:19:49;;;;;;;3.85;2.40;;;;;;;-0.69;34.37;97196.41;5093368;28;20028;-62
2022/01/25 13:22:20;;;;;;;3.15;2.10;;;;;;;-0.63;34.03;97190.53;5093444;28;20036;-62
2022/01/25 13:24:58;;;;;;;3.38;2.30;;;;;;;-0.60;33.92;97189.69;5093554;28;20039;-62
2022/01/25 13:27:29;;;;;;;4.32;2.40;;;;;;;-0.65;33.99;97187.03;5093551;28;20485;-63
2022/01/25 13:32:46;;;;;;;6.22;3.03;;;;;;;-0.75;34.24;97182.59;5093736;28;20035;-62
2022/01/25 13:35:30;;;;;;;3.85;2.60;;;;;;;-0.78;34.17;97186.81;5093359;28;20031;-63
2022/01/25 13:38:04;;;;;;;5.50;3.22;;;;;;;-0.92;34.08;97188.28;5093383;28;20523;-62
2022/01/25 13:40:45;;;;;;;3.83;2.35;;;;;;;-0.88;33.59;97189.22;5093218;28;20107;-62